sensor_id;sensor_type;location;lat;lon;timestamp;pressure;altitude;pressure_sealevel;temperature;humidity
9289;BME280;4683;50.864;12.086;2022-08-19T07:52:33;98749.66;;;21.35;100.00
9289;BME280;4683;50.864;12.086;2022-08-19T08:56:20;98778.88;;;21.74;100.00
9289;BME280;4683;50.864;12.086;2022-08-19T08:58:57;98783.44;;;21.68;100.00
9289;BME280;4683;50.864;12.086;2022-08-19T09:01:27;98784.72;;;21.61;100.00
9289;BME280;4683;50.864;12.086;2022-08-19T09:03:56;98802.72;;;21.65;100.00
9289;BME280;4683;50.864;12.086;2022-08-19T13:04:46;98839.53;;;22.85;93.76
9289;BME280;4683;50.864;12.086;2022-08-19T13:07:16;98837.91;;;22.79;93.89
9289;BME280;4683;50.864;12.086;2022-08-19T13:09:44;98840.06;;;22.82;93.59
9289;BME280;4683;50.864;12.086;2022-08-19T14:11:50;98848.84;;;21.94;96.72
9289;BME280;4683;50.864;12.086;2022-08-19T14:14:19;98848.09;;;22.04;96.43
9289;BME280;4683;50.864;12.086;2022-08-19T14:16:49;98846.19;;;21.99;96.54
9289;BME280;4683;50.864;12.086;2022-08-19T14:19:19;98842.25;;;22.12;95.83
9289;BME280;4683;50.864;12.086;2022-08-19T14:21:48;98849.59;;;22.32;94.58
9289;BME280;4683;50.864;12.086;2022-08-19T14:24:23;98842.34;;;22.38;93.60
9289;BME280;4683;50.864;12.086;2022-08-19T14:26:54;98837.53;;;22.45;93.61
9289;BME280;4683;50.864;12.086;2022-08-19T15:49:17;98830.06;;;21.99;93.44
9289;BME280;4683;50.864;12.086;2022-08-19T15:51:48;98827.16;;;22.11;91.86
9289;BME280;4683;50.864;12.086;2022-08-19T15:54:20;98825.91;;;22.24;90.22
9289;BME280;4683;50.864;12.086;2022-08-19T15:56:50;98822.72;;;22.32;88.75
9289;BME280;4683;50.864;12.086;2022-08-19T15:59:37;98831.53;;;22.22;88.98
9289;BME280;4683;50.864;12.086;2022-08-19T18:48:51;98862.16;;;21.79;94.36
9289;BME280;4683;50.864;12.086;2022-08-19T18:51:32;98856.78;;;21.79;93.82
9289;BME280;4683;50.864;12.086;2022-08-19T18:54:02;98861.03;;;21.70;94.67
9289;BME280;4683;50.864;12.086;2022-08-19T18:56:31;98874.44;;;21.70;95.16
9289;BME280;4683;50.864;12.086;2022-08-19T18:59:01;98870.97;;;21.69;95.87
9289;BME280;4683;50.864;12.086;2022-08-19T19:30:58;98875.69;;;21.30;99.10
9289;BME280;4683;50.864;12.086;2022-08-19T19:33:27;98880.59;;;21.33;99.20
9289;BME280;4683;50.864;12.086;2022-08-19T19:35:55;98883.94;;;21.45;98.85
9289;BME280;4683;50.864;12.086;2022-08-19T20:59:55;98916.19;;;20.14;100.00
9289;BME280;4683;50.864;12.086;2022-08-19T21:02:24;98924.22;;;20.14;100.00
9289;BME280;4683;50.864;12.086;2022-08-19T21:04:53;98926.72;;;20.20;100.00
9289;BME280;4683;50.864;12.086;2022-08-19T21:07:22;98926.03;;;20.30;100.00
9289;BME280;4683;50.864;12.086;2022-08-19T21:09:51;98927.75;;;20.36;100.00
9289;BME280;4683;50.864;12.086;2022-08-19T21:12:19;98931.63;;;20.45;100.00
9289;BME280;4683;50.864;12.086;2022-08-19T21:44:26;98933.03;;;20.31;100.00
9289;BME280;4683;50.864;12.086;2022-08-19T21:46:55;98927.47;;;20.38;100.00
9289;BME280;4683;50.864;12.086;2022-08-19T21:49:24;98932.03;;;20.37;100.00
9289;BME280;4683;50.864;12.086;2022-08-19T21:51:53;98941.47;;;20.40;100.00
9289;BME280;4683;50.864;12.086;2022-08-19T21:54:25;98940.06;;;20.37;100.00
9289;BME280;4683;50.864;12.086;2022-08-19T21:56:54;98930.09;;;20.33;100.00
9289;BME280;4683;50.864;12.086;2022-08-19T22:56:17;98947.38;;;19.86;100.00
9289;BME280;4683;50.864;12.086;2022-08-19T22:58:47;98941.94;;;19.81;100.00
9289;BME280;4683;50.864;12.086;2022-08-19T23:01:18;98941.75;;;19.88;100.00
9289;BME280;4683;50.864;12.086;2022-08-19T23:03:47;98946.78;;;19.84;100.00
9289;BME280;4683;50.864;12.086;2022-08-19T23:06:17;98950.44;;;19.95;100.00
9289;BME280;4683;50.864;12.086;2022-08-19T23:08:46;98941.03;;;19.92;100.00
9289;BME280;4683;50.864;12.086;2022-08-19T23:11:16;98948.97;;;20.04;100.00
9289;BME280;4683;50.864;12.086;2022-08-19T23:13:45;98952.13;;;20.18;100.00
9289;BME280;4683;50.864;12.086;2022-08-19T23:16:16;98944.72;;;20.25;100.00
9289;BME280;4683;50.864;12.086;2022-08-19T23:18:44;98941.06;;;20.31;100.00
9289;BME280;4683;50.864;12.086;2022-08-19T23:21:14;98934.31;;;20.28;100.00
9289;BME280;4683;50.864;12.086;2022-08-19T23:23:43;98947.47;;;20.30;100.00
9289;BME280;4683;50.864;12.086;2022-08-19T23:26:13;98948.13;;;20.37;100.00
9289;BME280;4683;50.864;12.086;2022-08-19T23:28:42;98950.53;;;20.39;100.00
9289;BME280;4683;50.864;12.086;2022-08-19T23:31:28;98956.69;;;20.39;100.00
9289;BME280;4683;50.864;12.086;2022-08-19T23:33:56;98962.72;;;20.46;100.00
9289;BME280;4683;50.864;12.086;2022-08-19T23:36:25;98957.03;;;20.43;100.00
9289;BME280;4683;50.864;12.086;2022-08-19T23:38:55;98958.84;;;20.37;100.00
9289;BME280;4683;50.864;12.086;2022-08-19T23:41:26;98959.97;;;20.41;100.00
9289;BME280;4683;50.864;12.086;2022-08-19T23:43:55;98959.97;;;20.41;100.00
9289;BME280;4683;50.864;12.086;2022-08-19T23:46:25;98963.41;;;20.20;100.00
9289;BME280;4683;50.864;12.086;2022-08-19T23:48:54;98951.06;;;20.02;100.00
9289;BME280;4683;50.864;12.086;2022-08-19T23:51:24;98953.28;;;20.05;100.00
9289;BME280;4683;50.864;12.086;2022-08-19T23:53:53;98953.94;;;20.12;100.00
9289;BME280;4683;50.864;12.086;2022-08-19T23:56:22;98954.75;;;20.13;100.00
9289;BME280;4683;50.864;12.086;2022-08-19T23:58:52;98956.97;;;20.21;100.00
